createdAt,value
2022-12-24T00:00:49.977Z,99
2022-12-24T00:01:59.231Z,99
2022-12-24T00:03:08.330Z,99
2022-12-24T00:04:17.600Z,99.5
2022-12-24T00:05:26.701Z,99.5
2022-12-24T00:06:35.856Z,99.5
2022-12-24T00:07:45.066Z,99.5
2022-12-24T00:10:03.483Z,99
2022-12-24T00:11:12.530Z,99.5
2022-12-24T00:12:21.707Z,99.5
2022-12-24T00:13:30.882Z,99
2022-12-24T00:14:40.073Z,99
2022-12-24T00:15:48.247Z,99.5
2022-12-24T00:16:57.418Z,99
2022-12-24T00:18:06.600Z,99
2022-12-24T00:19:15.782Z,98.5
2022-12-24T00:20:24.941Z,99
2022-12-24T00:21:34.166Z,99
2022-12-24T00:22:43.293Z,98
2022-12-24T00:23:52.460Z,99
2022-12-24T00:25:00.702Z,99
2022-12-24T00:26:08.833Z,99.5
2022-12-24T00:27:18.086Z,99.5
2022-12-24T00:28:27.190Z,99.5
2022-12-24T00:29:36.360Z,99
2022-12-24T00:30:44.556Z,99
2022-12-24T00:31:52.732Z,99
2022-12-24T00:33:01.914Z,99
2022-12-24T00:34:11.077Z,99
2022-12-24T00:35:20.252Z,99.5
2022-12-24T00:36:29.419Z,99.5
2022-12-24T00:37:38.595Z,99.5
2022-12-24T00:38:47.772Z,99
2022-12-24T00:39:56.976Z,99.5
2022-12-24T00:41:06.428Z,99.5
2022-12-24T00:42:15.303Z,99
2022-12-24T00:43:24.470Z,99.5
2022-12-24T00:44:33.630Z,99.5
2022-12-24T00:45:42.880Z,99.5
2022-12-24T00:46:51.005Z,99.5
2022-12-24T00:48:00.174Z,99.5
2022-12-24T00:49:09.352Z,99.5
2022-12-24T00:50:18.581Z,98.5
2022-12-24T00:51:27.791Z,97.5
2022-12-24T00:52:36.858Z,98.5
2022-12-24T00:53:46.038Z,98
2022-12-24T00:54:54.311Z,97.5
2022-12-24T00:56:02.508Z,97.5
2022-12-24T00:57:10.630Z,98
2022-12-24T00:58:18.797Z,98
2022-12-24T00:59:27.996Z,97
2022-12-24T01:00:37.148Z,96.5
2022-12-24T01:01:46.417Z,97
2022-12-24T01:02:55.485Z,97
2022-12-24T01:04:04.660Z,97
2022-12-24T01:05:13.858Z,97
2022-12-24T01:06:23.039Z,97
2022-12-24T01:07:32.185Z,97
2022-12-24T01:08:41.359Z,97
2022-12-24T01:09:50.524Z,97.5
2022-12-24T01:10:59.696Z,96.5
2022-12-24T01:12:08.878Z,97
2022-12-24T01:13:17.049Z,97.5
2022-12-24T01:14:26.234Z,97
2022-12-24T01:15:35.417Z,97.5
2022-12-24T01:16:44.578Z,98
2022-12-24T01:17:53.750Z,97
2022-12-24T01:19:02.912Z,96.5
2022-12-24T01:20:12.106Z,97
2022-12-24T01:22:30.439Z,97
2022-12-24T01:23:39.612Z,97.5
2022-12-24T01:24:48.784Z,96.5
2022-12-24T01:27:07.136Z,97
2022-12-24T01:28:15.317Z,96.5
2022-12-24T01:29:24.522Z,96.5
2022-12-24T01:30:33.663Z,96.5
2022-12-24T01:31:42.903Z,97
2022-12-24T01:32:52.095Z,97
2022-12-24T01:34:01.206Z,97
2022-12-24T01:35:10.352Z,97.5
2022-12-24T01:36:19.582Z,97.5
2022-12-24T01:37:28.743Z,97
2022-12-24T01:38:37.940Z,96.5
2022-12-24T01:40:56.226Z,97
2022-12-24T01:42:04.410Z,97.5
2022-12-24T01:43:12.594Z,97.5
2022-12-24T01:44:21.804Z,97.5
2022-12-24T01:45:30.933Z,97.5
2022-12-24T01:46:40.107Z,97.5
2022-12-24T01:47:49.322Z,97
2022-12-24T01:48:58.460Z,97.5
2022-12-24T01:50:07.629Z,97.5
2022-12-24T01:51:16.814Z,96.5
2022-12-24T01:52:26.037Z,96.5
2022-12-24T01:53:35.185Z,97.5
2022-12-24T01:54:43.418Z,96.5
2022-12-24T01:55:51.559Z,97
2022-12-24T01:57:00.718Z,97.5
2022-12-24T01:58:09.943Z,97.5
2022-12-24T01:59:19.064Z,98
2022-12-24T02:00:28.260Z,98
2022-12-24T02:01:37.390Z,97.5
2022-12-24T02:02:46.574Z,98.5
2022-12-24T02:03:55.747Z,98
2022-12-24T02:05:04.932Z,98.5
2022-12-24T02:06:14.093Z,99.5
2022-12-24T02:07:23.271Z,99.5
2022-12-24T02:08:32.439Z,99.5
2022-12-24T02:09:41.603Z,99.5
2022-12-24T02:10:49.822Z,99.5
2022-12-24T02:11:58.971Z,98.5
2022-12-24T02:13:08.184Z,98.5
2022-12-24T02:14:17.371Z,98.5
2022-12-24T02:15:26.593Z,99.5
2022-12-24T02:16:35.645Z,99.5
2022-12-24T02:17:44.839Z,99.5
2022-12-24T02:18:53.021Z,99.5
2022-12-24T02:20:01.224Z,99.5
2022-12-24T02:21:10.418Z,99.5
2022-12-24T02:22:18.587Z,99.5
2022-12-24T02:23:26.779Z,99.5
2022-12-24T02:24:34.967Z,99.5
2022-12-24T02:25:44.147Z,99.5
2022-12-24T02:26:53.305Z,99.5
2022-12-24T02:28:02.477Z,99.5
2022-12-24T02:29:11.657Z,99.5
2022-12-24T02:30:20.907Z,99.5
2022-12-24T02:31:30.003Z,99.5
2022-12-24T02:32:39.346Z,99.5
2022-12-24T02:33:48.345Z,99.5
2022-12-24T02:34:57.551Z,99.5
2022-12-24T02:36:06.766Z,99.5
2022-12-24T02:38:25.026Z,99.5
2022-12-24T02:39:33.224Z,99.5
2022-12-24T02:40:42.391Z,99.5
2022-12-24T02:41:51.574Z,99.5
2022-12-24T02:43:00.743Z,98.5
2022-12-24T02:44:09.907Z,98.5
2022-12-24T02:45:19.141Z,98.5
2022-12-24T02:46:28.278Z,98.5
2022-12-24T02:47:37.465Z,98.5
2022-12-24T02:48:45.622Z,98
2022-12-24T02:51:02.992Z,97.5
2022-12-24T02:52:12.143Z,98
2022-12-24T02:53:21.335Z,98
2022-12-24T02:54:29.538Z,98.5
2022-12-24T02:55:37.726Z,97.5
2022-12-24T02:56:46.881Z,98
2022-12-24T02:57:56.073Z,98
2022-12-24T02:59:05.219Z,98.5
2022-12-24T03:00:14.449Z,99
2022-12-24T03:01:23.586Z,98
2022-12-24T03:02:32.797Z,98.5
2022-12-24T03:03:41.928Z,98
2022-12-24T03:04:51.084Z,98.5
2022-12-24T03:06:00.264Z,99
2022-12-24T03:07:09.492Z,99
2022-12-24T03:08:18.653Z,99
2022-12-24T03:09:27.787Z,98.5
2022-12-24T03:10:35.973Z,98
2022-12-24T03:11:45.148Z,98.5
2022-12-24T03:12:54.315Z,98.5
2022-12-24T03:14:03.506Z,98.5
2022-12-24T03:15:12.655Z,98.5
2022-12-24T03:16:21.831Z,98.5
2022-12-24T03:17:31.007Z,98.5
2022-12-24T03:18:40.188Z,98
2022-12-24T03:19:48.377Z,98
2022-12-24T03:20:56.560Z,97.5
2022-12-24T03:22:04.797Z,97.5
2022-12-24T03:23:12.932Z,98
2022-12-24T03:24:22.115Z,97.5
2022-12-24T03:25:31.294Z,97.5
2022-12-24T03:26:40.522Z,97
2022-12-24T03:27:49.645Z,97
2022-12-24T03:28:58.802Z,96.5
2022-12-24T03:30:07.970Z,96.5
2022-12-24T03:31:17.159Z,97
2022-12-24T03:32:26.315Z,96
2022-12-24T03:33:35.494Z,96.5
2022-12-24T03:34:44.674Z,97
2022-12-24T03:35:53.839Z,96.5
2022-12-24T03:37:03.007Z,96
2022-12-24T03:38:11.200Z,96.5
2022-12-24T03:39:20.373Z,97
2022-12-24T03:40:29.540Z,97
2022-12-24T03:41:38.725Z,97
2022-12-24T03:42:47.891Z,96.5
2022-12-24T03:43:57.096Z,97
2022-12-24T03:45:06.236Z,96
2022-12-24T03:46:14.437Z,96
2022-12-24T03:47:22.637Z,95.5
2022-12-24T03:48:30.814Z,95
2022-12-24T03:50:48.175Z,94.5
2022-12-24T03:51:57.362Z,95
2022-12-24T03:53:06.508Z,95.5
2022-12-24T03:54:15.698Z,96
2022-12-24T03:55:24.852Z,96
2022-12-24T03:56:34.036Z,96.5
2022-12-24T03:57:43.209Z,96.5
2022-12-24T03:58:52.381Z,96
2022-12-24T04:00:01.562Z,96
2022-12-24T04:01:10.738Z,95.5
2022-12-24T04:02:19.929Z,96
2022-12-24T04:03:29.075Z,96
2022-12-24T04:04:37.272Z,96
2022-12-24T04:06:55.613Z,95.5
2022-12-24T04:08:04.796Z,95
2022-12-24T04:09:13.957Z,95
2022-12-24T04:10:23.135Z,96
2022-12-24T04:11:32.297Z,95.5
2022-12-24T04:12:41.467Z,95.5
2022-12-24T04:13:50.655Z,95
2022-12-24T04:14:59.890Z,96.5
2022-12-24T04:16:08.987Z,96
2022-12-24T04:17:18.170Z,96
2022-12-24T04:18:27.336Z,96
2022-12-24T04:19:35.520Z,95.5
2022-12-24T04:20:44.718Z,95.5
2022-12-24T04:21:53.873Z,95.5
2022-12-24T04:23:03.044Z,95.5
2022-12-24T04:24:12.209Z,96.5
2022-12-24T04:25:21.440Z,96.5
2022-12-24T04:26:30.558Z,96.5
2022-12-24T04:27:39.726Z,96.5
2022-12-24T04:28:48.893Z,96
2022-12-24T04:29:58.072Z,95.5
2022-12-24T04:31:07.260Z,95.5
2022-12-24T04:32:16.424Z,95.5
2022-12-24T04:33:25.593Z,96
2022-12-24T04:34:33.773Z,96
2022-12-24T04:35:42.951Z,97
2022-12-24T04:36:52.220Z,96.5
2022-12-24T04:38:00.327Z,96.5
2022-12-24T04:39:08.512Z,96.5
2022-12-24T04:40:16.697Z,96
2022-12-24T04:41:24.904Z,96
2022-12-24T04:42:34.065Z,96
2022-12-24T04:43:43.228Z,96
2022-12-24T04:44:52.406Z,95.5
2022-12-24T04:46:01.577Z,95.5
2022-12-24T04:47:10.755Z,95.5
2022-12-24T04:49:29.095Z,96
2022-12-24T04:50:38.264Z,96.5
2022-12-24T04:51:47.437Z,96
2022-12-24T04:52:56.607Z,96.5
2022-12-24T04:54:05.794Z,95.5
2022-12-24T04:55:14.956Z,96
2022-12-24T04:56:23.157Z,95.5
2022-12-24T04:57:32.324Z,96.5
2022-12-24T04:58:41.493Z,96
2022-12-24T04:59:50.679Z,96.5
2022-12-24T05:00:59.856Z,96.5
2022-12-24T05:02:09.013Z,96.5
2022-12-24T05:03:18.196Z,96.5
2022-12-24T05:04:27.356Z,96
2022-12-24T05:05:36.529Z,95.5
2022-12-24T05:06:45.705Z,95.5
2022-12-24T05:07:54.870Z,95.5
2022-12-24T05:09:04.046Z,95.5
2022-12-24T05:10:13.227Z,96.5
2022-12-24T05:11:21.420Z,96.5
2022-12-24T05:12:30.574Z,96.5
2022-12-24T05:13:39.758Z,97
2022-12-24T05:14:48.934Z,97
2022-12-24T05:15:58.105Z,97
2022-12-24T05:17:07.271Z,97
2022-12-24T05:18:16.444Z,96
2022-12-24T05:19:25.623Z,96.5
2022-12-24T05:20:34.789Z,96.5
2022-12-24T05:21:43.984Z,96.5
2022-12-24T05:22:53.132Z,96.5
2022-12-24T05:24:02.297Z,96.5
2022-12-24T05:25:11.490Z,97
2022-12-24T05:26:19.667Z,96.5
2022-12-24T05:27:28.848Z,96.5
2022-12-24T05:28:38.015Z,97
2022-12-24T05:29:47.197Z,96.5
2022-12-24T05:30:56.362Z,96.5
2022-12-24T05:32:05.575Z,96.5
2022-12-24T05:33:14.701Z,96.5
2022-12-24T05:34:23.928Z,96.5
2022-12-24T05:35:33.069Z,96.5
2022-12-24T05:36:42.236Z,97
2022-12-24T05:37:51.410Z,97
2022-12-24T05:39:00.612Z,97
2022-12-24T05:40:09.763Z,97
2022-12-24T05:41:17.930Z,97
2022-12-24T05:42:27.097Z,96.5
2022-12-24T05:43:36.268Z,96.5
2022-12-24T05:44:45.491Z,97
2022-12-24T05:45:54.619Z,97
2022-12-24T05:47:03.858Z,97
2022-12-24T05:48:12.966Z,97
2022-12-24T05:49:22.164Z,97
2022-12-24T05:50:31.357Z,97
2022-12-24T05:51:40.482Z,97.5
2022-12-24T05:52:49.658Z,98
2022-12-24T05:53:58.832Z,98
2022-12-24T05:55:08.000Z,97.5
2022-12-24T05:56:16.203Z,97
2022-12-24T05:57:25.360Z,98
2022-12-24T05:58:34.533Z,98.5
2022-12-24T05:59:43.723Z,99
2022-12-24T06:00:52.912Z,99
2022-12-24T06:02:02.075Z,99
2022-12-24T06:03:11.233Z,99.5
2022-12-24T06:04:20.406Z,99.5
2022-12-24T06:05:29.575Z,99.5
2022-12-24T06:06:38.739Z,99.5
2022-12-24T06:07:47.915Z,99.5
2022-12-24T06:08:57.097Z,99.5
2022-12-24T06:10:06.291Z,99.5
2022-12-24T06:11:15.440Z,99.5
2022-12-24T06:12:23.623Z,99.5
2022-12-24T06:13:32.804Z,99.5
2022-12-24T06:14:42.021Z,99.5
2022-12-24T06:15:50.159Z,99.5
2022-12-24T06:16:59.332Z,99.5
2022-12-24T06:18:07.523Z,99.5
2022-12-24T06:19:16.716Z,99.5
2022-12-24T06:20:24.892Z,99.5
2022-12-24T06:21:33.102Z,99.5
2022-12-24T06:22:41.272Z,99.5
2022-12-24T06:23:50.446Z,99.5
2022-12-24T06:24:59.611Z,99.5
2022-12-24T06:26:08.785Z,99.5
2022-12-24T06:29:36.330Z,99.5
2022-12-24T06:30:45.480Z,99.5
2022-12-24T06:31:54.645Z,99.5
2022-12-24T06:33:03.830Z,99.5
2022-12-24T06:34:13.018Z,99.5
2022-12-24T06:35:22.168Z,99.5
2022-12-24T06:36:30.375Z,99.5
2022-12-24T06:37:38.562Z,99.5
2022-12-24T06:38:47.732Z,99.5
2022-12-24T06:39:56.906Z,99.5
2022-12-24T06:41:06.088Z,99.5
2022-12-24T06:42:15.246Z,99.5
2022-12-24T06:43:24.413Z,99.5
2022-12-24T06:44:33.585Z,99.5
2022-12-24T06:45:42.752Z,99.5
2022-12-24T06:46:51.922Z,99.5
2022-12-24T06:48:01.108Z,99.5
2022-12-24T06:49:09.304Z,99.5
2022-12-24T06:50:17.487Z,99.5
2022-12-24T06:51:26.730Z,99.5
2022-12-24T06:52:35.843Z,99.5
2022-12-24T06:53:45.018Z,99.5
2022-12-24T06:54:54.176Z,99.5
2022-12-24T06:56:03.351Z,99.5
2022-12-24T06:57:12.518Z,99.5
2022-12-24T06:58:21.699Z,99.5
2022-12-24T06:59:30.961Z,99.5
2022-12-24T07:00:40.044Z,99.5
2022-12-24T07:01:49.215Z,99.5
2022-12-24T07:02:58.434Z,99.5
2022-12-24T07:04:07.614Z,99.5
2022-12-24T07:05:15.838Z,99.5
2022-12-24T07:06:24.924Z,99.5
2022-12-24T07:07:34.099Z,99.5
2022-12-24T07:08:43.318Z,99.5
2022-12-24T07:09:52.454Z,99.5
2022-12-24T07:11:01.622Z,99.5
2022-12-24T07:12:10.781Z,99.5
2022-12-24T07:13:19.993Z,99.5
2022-12-24T07:14:28.171Z,99.5
2022-12-24T07:15:36.336Z,99.5
2022-12-24T07:16:45.568Z,99.5
2022-12-24T07:17:54.701Z,99.5
2022-12-24T07:19:03.936Z,99.5
2022-12-24T07:20:13.034Z,99.5
2022-12-24T07:21:22.206Z,99.5
2022-12-24T07:22:30.401Z,99.5
2022-12-24T07:23:38.581Z,99.5
2022-12-24T07:24:47.760Z,99.5
2022-12-24T07:25:56.935Z,99.5
2022-12-24T07:27:06.104Z,99.5
2022-12-24T07:28:15.275Z,99.5
2022-12-24T07:29:24.526Z,99.5
2022-12-24T07:30:33.625Z,99.5
2022-12-24T07:31:42.803Z,99.5
2022-12-24T07:32:51.979Z,99.5
2022-12-24T07:34:01.142Z,99.5
2022-12-24T07:35:10.314Z,99.5
2022-12-24T07:36:19.540Z,99.5
2022-12-24T07:37:28.662Z,99.5
2022-12-24T07:38:36.866Z,99.5
2022-12-24T07:39:46.030Z,99.5
2022-12-24T07:40:55.202Z,99.5
2022-12-24T07:42:04.354Z,99.5
2022-12-24T07:43:13.539Z,99.5
2022-12-24T07:44:22.775Z,99.5
2022-12-24T07:45:31.885Z,99.5
2022-12-24T07:46:40.085Z,99.5
2022-12-24T07:47:48.308Z,99.5
2022-12-24T07:48:57.443Z,99.5
2022-12-24T07:50:05.651Z,99.5
2022-12-24T07:51:13.811Z,99.5
2022-12-24T07:52:23.066Z,99.5
2022-12-24T07:53:32.197Z,99.5
2022-12-24T07:54:41.340Z,99.5
2022-12-24T07:55:50.589Z,99.5
2022-12-24T07:56:59.677Z,99.5
2022-12-24T07:58:08.950Z,99.5
2022-12-24T07:59:18.016Z,99.5
2022-12-24T08:00:27.209Z,99.5
2022-12-24T08:01:36.360Z,99.5
2022-12-24T08:02:45.806Z,99.5
2022-12-24T08:03:54.869Z,99.5
2022-12-24T08:05:03.978Z,99.5
2022-12-24T08:06:12.159Z,99.5
2022-12-24T08:07:21.248Z,99.5
2022-12-24T08:08:30.571Z,99.5
2022-12-24T08:09:39.785Z,99.5
2022-12-24T08:10:48.777Z,99.5
2022-12-24T08:11:58.008Z,99.5
2022-12-24T08:13:07.180Z,99.5
2022-12-24T08:14:15.478Z,99.5
2022-12-24T08:15:23.571Z,99.5
2022-12-24T08:16:32.904Z,99.5
2022-12-24T08:17:40.864Z,99.5
2022-12-24T08:18:49.162Z,99.5
2022-12-24T08:19:58.303Z,99.5
2022-12-24T08:21:07.465Z,99.5
2022-12-24T08:22:16.687Z,99.5
2022-12-24T08:23:25.799Z,99.5
2022-12-24T08:24:35.044Z,99.5
2022-12-24T08:25:44.224Z,99.5
2022-12-24T08:26:53.383Z,99.5
2022-12-24T08:28:02.635Z,99.5
2022-12-24T08:29:11.709Z,99.5
2022-12-24T08:30:20.786Z,99.5
2022-12-24T08:31:30.101Z,99.5
2022-12-24T08:32:39.235Z,99.5
2022-12-24T08:33:47.352Z,99.5
2022-12-24T08:34:56.500Z,99.5
2022-12-24T08:36:05.739Z,99.5
2022-12-24T08:37:14.829Z,99.5
2022-12-24T08:38:24.069Z,99.5
2022-12-24T08:39:33.189Z,99.5
2022-12-24T08:40:42.347Z,99.5
2022-12-24T08:41:50.659Z,99.5
2022-12-24T08:42:58.744Z,99.5
2022-12-24T08:44:07.991Z,99.5
2022-12-24T08:45:17.091Z,99.5
2022-12-24T08:47:35.458Z,99.5
2022-12-24T08:48:44.783Z,99.5
2022-12-24T08:49:53.766Z,99.5
2022-12-24T08:51:02.961Z,99.5
2022-12-24T08:52:12.161Z,99.5
2022-12-24T08:53:21.369Z,99.5
2022-12-24T08:54:30.525Z,99.5
2022-12-24T08:55:39.686Z,99.5
2022-12-24T08:56:48.866Z,99.5
2022-12-24T08:57:57.061Z,99.5
2022-12-24T08:59:06.171Z,99.5
2022-12-24T09:00:15.354Z,99.5
2022-12-24T09:01:24.582Z,99.5
2022-12-24T09:02:33.690Z,99.5
2022-12-24T09:03:42.957Z,99.5
2022-12-24T09:04:52.082Z,99.5
2022-12-24T09:06:01.298Z,99.5
2022-12-24T09:07:09.458Z,99.5
2022-12-24T09:08:17.578Z,99.5
2022-12-24T09:09:26.892Z,99.5
2022-12-24T09:10:35.211Z,99.5
2022-12-24T09:11:43.192Z,99.5
2022-12-24T09:12:52.396Z,99.5
2022-12-24T09:14:01.570Z,99.5
2022-12-24T09:15:10.665Z,99.5
2022-12-24T09:16:19.902Z,99
2022-12-24T09:17:29.127Z,99.5
2022-12-24T09:18:38.294Z,99
2022-12-24T09:19:47.358Z,99.5
2022-12-24T09:20:56.803Z,99.5
2022-12-24T09:22:05.723Z,99.5
2022-12-24T09:23:14.941Z,99
2022-12-24T09:24:24.124Z,98
2022-12-24T09:25:33.209Z,99
2022-12-24T09:26:41.397Z,99.5
2022-12-24T09:27:50.562Z,99.5
2022-12-24T09:28:59.787Z,99.5
2022-12-24T09:30:08.911Z,99.5
2022-12-24T09:31:18.151Z,99.5
2022-12-24T09:32:27.293Z,99.5
2022-12-24T09:33:36.452Z,99.5
2022-12-24T09:34:44.641Z,99
2022-12-24T09:35:52.808Z,99.5
2022-12-24T09:37:01.023Z,98.5
2022-12-24T09:38:09.278Z,99
2022-12-24T09:39:18.378Z,98.5
2022-12-24T09:40:27.562Z,97.5
2022-12-24T09:41:36.745Z,97.5
2022-12-24T09:42:45.981Z,97
2022-12-24T09:43:55.069Z,97.5
2022-12-24T09:45:04.236Z,95.5
2022-12-24T09:46:13.428Z,95
2022-12-24T09:47:22.622Z,93
2022-12-24T09:48:31.781Z,88.5
2022-12-24T09:49:40.916Z,88.5
2022-12-24T09:50:50.149Z,91.5
2022-12-24T09:51:59.271Z,93.5
2022-12-24T09:53:07.459Z,94
2022-12-24T09:54:16.648Z,94
2022-12-24T09:55:25.813Z,95
2022-12-24T09:56:35.015Z,94.5
2022-12-24T09:57:44.184Z,95
2022-12-24T09:58:53.317Z,93
2022-12-24T10:00:02.524Z,93
2022-12-24T10:01:11.648Z,93.5
2022-12-24T10:02:20.870Z,94.5
2022-12-24T10:03:30.004Z,94
2022-12-24T10:05:48.383Z,94.5
2022-12-24T10:06:57.553Z,94
2022-12-24T10:08:05.786Z,94
2022-12-24T10:09:13.941Z,93.5
2022-12-24T10:10:23.082Z,94
2022-12-24T10:11:32.255Z,93.5
2022-12-24T10:12:41.488Z,93.5
2022-12-24T10:13:49.709Z,93
2022-12-24T10:16:06.995Z,90.5
2022-12-24T10:17:16.179Z,91.5
2022-12-24T10:18:25.355Z,93
2022-12-24T10:19:34.498Z,94
2022-12-24T10:20:43.663Z,94
2022-12-24T10:21:52.829Z,93.5
2022-12-24T10:23:02.056Z,95
2022-12-24T10:24:11.245Z,94.5
2022-12-24T10:25:20.430Z,95.5
2022-12-24T10:26:29.536Z,95.5
2022-12-24T10:27:38.724Z,96
2022-12-24T10:28:47.931Z,95.5
2022-12-24T10:29:56.074Z,94.5
2022-12-24T10:31:05.242Z,93
2022-12-24T10:32:14.392Z,94
2022-12-24T10:33:23.655Z,94
2022-12-24T10:34:32.747Z,95
2022-12-24T10:35:41.944Z,94
2022-12-24T10:36:51.104Z,95
2022-12-24T10:38:00.270Z,95
2022-12-24T10:39:08.464Z,95
2022-12-24T10:40:16.651Z,95
2022-12-24T10:41:24.865Z,94.5
2022-12-24T10:42:33.114Z,94
2022-12-24T10:43:42.257Z,95
2022-12-24T10:44:51.390Z,94.5
2022-12-24T10:46:00.561Z,94.5
2022-12-24T10:47:09.725Z,94.5
2022-12-24T10:48:18.893Z,94
2022-12-24T10:49:28.062Z,94
2022-12-24T10:51:46.438Z,94
2022-12-24T10:52:55.584Z,94
2022-12-24T10:54:04.761Z,94.5
2022-12-24T10:55:13.919Z,94.5
2022-12-24T10:56:23.157Z,93.5
2022-12-24T10:57:32.300Z,92
2022-12-24T10:58:40.452Z,90.5
2022-12-24T10:59:49.723Z,90.5
2022-12-24T11:00:58.858Z,92.5
2022-12-24T11:02:07.967Z,92.5
2022-12-24T11:03:17.220Z,91.5
2022-12-24T11:04:26.309Z,88
2022-12-24T11:05:35.485Z,91
2022-12-24T11:06:44.771Z,92
2022-12-24T11:07:53.951Z,92
2022-12-24T11:09:03.125Z,93.5
2022-12-24T11:10:12.189Z,93
2022-12-24T11:11:21.342Z,94.5
2022-12-24T11:12:30.563Z,93.5
2022-12-24T11:13:38.722Z,94
2022-12-24T11:14:48.008Z,94.5
2022-12-24T11:15:57.065Z,94.5
2022-12-24T11:17:06.254Z,94.5
2022-12-24T11:18:15.473Z,94.5
2022-12-24T11:19:24.626Z,95
2022-12-24T11:20:33.746Z,95
2022-12-24T11:21:42.913Z,94.5
2022-12-24T11:22:52.133Z,94.5
2022-12-24T11:24:01.337Z,93.5
2022-12-24T11:25:10.450Z,94
2022-12-24T11:26:19.667Z,91.5
2022-12-24T11:27:28.768Z,88.5
2022-12-24T11:28:37.086Z,88.5
2022-12-24T11:29:45.151Z,86.5
2022-12-24T11:30:54.404Z,87.5
2022-12-24T11:32:03.624Z,86
2022-12-24T11:33:12.677Z,84.5
2022-12-24T11:34:21.854Z,83.5
2022-12-24T11:35:31.021Z,87.5
2022-12-24T11:36:40.206Z,84.5
2022-12-24T11:37:49.364Z,87
2022-12-24T11:38:58.539Z,87.5
2022-12-24T11:40:07.719Z,90.5
2022-12-24T11:42:26.124Z,87.5
2022-12-24T11:43:35.215Z,88
2022-12-24T11:44:43.410Z,89
2022-12-24T11:45:52.678Z,88
2022-12-24T11:47:01.778Z,89
2022-12-24T11:48:10.940Z,85.5
2022-12-24T11:49:20.091Z,88.5
2022-12-24T11:50:29.270Z,89.5
2022-12-24T11:51:38.439Z,90.5
2022-12-24T11:52:47.618Z,90.5
2022-12-24T11:53:55.815Z,92.5
2022-12-24T11:55:03.997Z,91.5
2022-12-24T11:56:13.237Z,91
2022-12-24T11:57:22.341Z,90.5
2022-12-24T11:58:30.533Z,91
2022-12-24T11:59:38.720Z,90.5
2022-12-24T12:00:47.886Z,92
2022-12-24T12:01:56.090Z,90
2022-12-24T12:03:05.263Z,87.5
2022-12-24T12:04:13.512Z,87.5
2022-12-24T12:05:22.631Z,85.5
2022-12-24T12:06:31.841Z,82.5
2022-12-24T12:07:40.974Z,83.5
2022-12-24T12:09:59.313Z,88
2022-12-24T12:11:08.527Z,86
2022-12-24T12:12:17.670Z,85
2022-12-24T12:13:26.892Z,83
2022-12-24T12:14:36.000Z,84
2022-12-24T12:15:45.168Z,84.5
2022-12-24T12:16:54.337Z,85
2022-12-24T12:18:03.630Z,85
2022-12-24T12:19:11.750Z,83
2022-12-24T12:20:20.940Z,85.5
2022-12-24T12:21:30.094Z,84.5
2022-12-24T12:22:39.289Z,85.5
2022-12-24T12:23:48.397Z,86.5
2022-12-24T12:24:57.591Z,87
2022-12-24T12:26:06.731Z,86
2022-12-24T12:27:15.904Z,87
2022-12-24T12:28:25.108Z,86
2022-12-24T12:30:43.482Z,85.5
2022-12-24T12:31:52.758Z,81.5
2022-12-24T12:33:01.768Z,83.5
2022-12-24T12:34:10.116Z,84
2022-12-24T12:35:19.145Z,80
2022-12-24T12:36:28.313Z,79
2022-12-24T12:37:37.548Z,80.5
2022-12-24T12:38:46.659Z,81.5
2022-12-24T12:39:55.827Z,82
2022-12-24T12:41:05.074Z,82
2022-12-24T12:42:14.196Z,81.5
2022-12-24T12:43:23.334Z,83.5
2022-12-24T12:44:32.521Z,80.5
2022-12-24T12:45:41.689Z,81.5
2022-12-24T12:46:50.901Z,79.5
2022-12-24T12:48:00.036Z,79.5
2022-12-24T12:49:08.308Z,80
2022-12-24T12:50:16.440Z,83
2022-12-24T12:51:25.616Z,86
2022-12-24T12:52:34.752Z,81
2022-12-24T12:53:43.988Z,83.5
2022-12-24T12:54:53.118Z,81
2022-12-24T12:56:02.415Z,82.5
2022-12-24T12:57:11.542Z,82
2022-12-24T12:58:20.735Z,83.5
2022-12-24T12:59:29.782Z,81.5
2022-12-24T13:00:38.967Z,80
2022-12-24T13:01:48.158Z,81
2022-12-24T13:02:57.297Z,83.5
2022-12-24T13:04:06.487Z,86.5
2022-12-24T13:05:15.670Z,85.5
2022-12-24T13:06:23.836Z,88
2022-12-24T13:07:33.021Z,87.5
2022-12-24T13:08:42.175Z,89
2022-12-24T13:09:51.368Z,87.5
2022-12-24T13:11:00.536Z,87
2022-12-24T13:12:09.772Z,87.5
2022-12-24T13:13:17.889Z,89.5
2022-12-24T13:14:26.079Z,88
2022-12-24T13:15:34.285Z,86
2022-12-24T13:16:42.487Z,86.5
2022-12-24T13:17:51.700Z,86.5
2022-12-24T13:20:09.985Z,88
2022-12-24T13:21:18.191Z,89
2022-12-24T13:22:26.368Z,88.5
2022-12-24T13:23:35.531Z,88.5
2022-12-24T13:24:44.711Z,90
2022-12-24T13:25:54.052Z,89
2022-12-24T13:27:03.095Z,90.5
2022-12-24T13:28:12.276Z,90
2022-12-24T13:29:21.482Z,91
2022-12-24T13:30:30.575Z,90.5
2022-12-24T13:31:39.835Z,90.5
2022-12-24T13:32:48.912Z,89.5
2022-12-24T13:33:58.084Z,91.5
2022-12-24T13:35:07.250Z,91
2022-12-24T13:36:16.526Z,89.5
2022-12-24T13:37:24.689Z,89.5
2022-12-24T13:38:33.790Z,90.5
2022-12-24T13:39:42.966Z,89.5
2022-12-24T13:40:52.151Z,90.5
2022-12-24T13:42:01.418Z,89
2022-12-24T13:43:10.504Z,89.5
2022-12-24T13:44:19.654Z,90.5
2022-12-24T13:45:27.937Z,89.5
2022-12-24T13:46:37.029Z,89.5
2022-12-24T13:47:45.267Z,91.5
2022-12-24T13:48:54.428Z,90.5
2022-12-24T13:50:03.586Z,90.5
2022-12-24T13:51:11.759Z,90.5
2022-12-24T13:52:19.927Z,90.5
2022-12-24T13:53:29.100Z,91
2022-12-24T13:54:38.302Z,90.5
2022-12-24T13:55:47.500Z,90.5
2022-12-24T13:58:05.809Z,91
2022-12-24T13:59:13.986Z,89.5
2022-12-24T14:00:23.199Z,90.5
2022-12-24T14:01:32.331Z,91
2022-12-24T14:02:41.504Z,91
2022-12-24T14:03:50.731Z,89.5
2022-12-24T14:04:59.853Z,91
2022-12-24T14:06:09.091Z,90
2022-12-24T14:07:18.184Z,89
2022-12-24T14:08:27.424Z,90
2022-12-24T14:09:36.541Z,90.5
2022-12-24T14:10:45.871Z,88.5
2022-12-24T14:11:54.884Z,88.5
2022-12-24T14:13:04.221Z,86.5
2022-12-24T14:14:12.275Z,86
2022-12-24T14:15:21.504Z,86.5
2022-12-24T14:16:29.796Z,85.5
2022-12-24T14:17:37.887Z,86
2022-12-24T14:18:47.019Z,88.5
2022-12-24T14:19:55.326Z,87.5
2022-12-24T14:21:03.349Z,89
2022-12-24T14:22:12.671Z,88.5
2022-12-24T14:23:21.785Z,88.5
2022-12-24T14:24:30.987Z,90
2022-12-24T14:25:40.139Z,88.5
2022-12-24T14:26:49.229Z,88
2022-12-24T14:27:58.380Z,88.5
2022-12-24T14:29:07.559Z,89
2022-12-24T14:30:16.853Z,89
2022-12-24T14:31:25.993Z,89
2022-12-24T14:32:35.211Z,88
2022-12-24T14:33:44.362Z,89
2022-12-24T14:34:53.500Z,89
2022-12-24T14:36:01.728Z,89
2022-12-24T14:37:10.820Z,88
2022-12-24T14:38:20.059Z,89
2022-12-24T14:39:29.157Z,89
2022-12-24T14:40:38.347Z,90.5
2022-12-24T14:41:47.472Z,90.5
2022-12-24T14:42:56.704Z,90.5
2022-12-24T14:45:14.982Z,90.5
2022-12-24T14:46:24.177Z,90.5
2022-12-24T14:47:33.344Z,90.5
2022-12-24T14:48:42.512Z,91
2022-12-24T14:49:51.733Z,91
2022-12-24T14:50:59.874Z,91
2022-12-24T14:53:18.305Z,91
2022-12-24T14:54:27.396Z,91.5
2022-12-24T14:55:36.573Z,92
2022-12-24T14:56:45.743Z,92
2022-12-24T14:57:54.898Z,91
2022-12-24T14:59:04.077Z,90
2022-12-24T15:00:13.279Z,90
2022-12-24T15:01:22.465Z,90
2022-12-24T15:02:31.599Z,90
2022-12-24T15:03:40.768Z,90
2022-12-24T15:04:50.004Z,90.5
2022-12-24T15:05:59.180Z,91
2022-12-24T15:07:07.319Z,91
2022-12-24T15:08:16.465Z,91.5
2022-12-24T15:09:24.735Z,91
2022-12-24T15:10:32.861Z,91.5
2022-12-24T15:11:41.057Z,91
2022-12-24T15:12:49.249Z,91
2022-12-24T15:13:58.459Z,92
2022-12-24T15:15:07.581Z,92
2022-12-24T15:16:16.806Z,91
2022-12-24T15:17:25.934Z,90.5
2022-12-24T15:18:35.163Z,91.5
2022-12-24T15:19:44.303Z,91
2022-12-24T15:20:53.444Z,91.5
2022-12-24T15:22:02.620Z,92
2022-12-24T15:23:11.797Z,93
2022-12-24T15:24:21.008Z,93.5
2022-12-24T15:25:30.151Z,93.5
2022-12-24T15:26:39.396Z,94
2022-12-24T15:27:48.492Z,94
2022-12-24T15:28:56.691Z,94.5
2022-12-24T15:30:05.852Z,94.5
2022-12-24T15:31:15.022Z,93.5
2022-12-24T15:32:24.320Z,93.5
2022-12-24T15:33:33.357Z,93.5
2022-12-24T15:34:42.540Z,94
2022-12-24T15:35:50.884Z,93.5
2022-12-24T15:36:58.925Z,94
2022-12-24T15:38:08.084Z,93.5
2022-12-24T15:39:16.385Z,93
2022-12-24T15:40:24.503Z,93.5
2022-12-24T15:41:33.645Z,93.5
2022-12-24T15:42:42.925Z,92.5
2022-12-24T15:43:52.023Z,92.5
2022-12-24T15:45:01.166Z,92.5
2022-12-24T15:46:10.349Z,92.5
2022-12-24T15:47:19.521Z,93
2022-12-24T15:48:28.867Z,93
2022-12-24T15:49:37.930Z,94
2022-12-24T15:50:47.064Z,94.5
2022-12-24T15:51:56.318Z,94
2022-12-24T15:53:05.404Z,94.5
2022-12-24T15:54:14.567Z,94.5
2022-12-24T15:55:22.779Z,94.5
2022-12-24T15:56:31.955Z,94.5
2022-12-24T15:57:41.202Z,94.5
2022-12-24T15:58:50.328Z,94
2022-12-24T15:59:59.463Z,94
2022-12-24T16:01:08.652Z,94.5
2022-12-24T16:02:17.809Z,94
2022-12-24T16:03:25.989Z,94.5
2022-12-24T16:04:34.215Z,95
2022-12-24T16:05:43.349Z,96.5